sensor_id;sensor_type;location;lat;lon;timestamp;pressure;altitude;pressure_sealevel;temperature;humidity
53440;BME280;39333;47.044;15.080;2022-12-07T00:01:33;95999.94;;;-0.09;78.63
53440;BME280;39333;47.044;15.080;2022-12-07T00:04:02;96003.44;;;-0.02;79.51
53440;BME280;39333;47.044;15.080;2022-12-07T00:06:37;96001.72;;;-0.10;78.91
53440;BME280;39333;47.044;15.080;2022-12-07T00:09:05;95999.41;;;-0.05;79.37
53440;BME280;39333;47.044;15.080;2022-12-07T00:11:33;95990.59;;;-0.04;79.19
53440;BME280;39333;47.044;15.080;2022-12-07T00:14:02;95984.13;;;-0.08;79.24
53440;BME280;39333;47.044;15.080;2022-12-07T00:16:31;95992.28;;;-0.11;78.80
53440;BME280;39333;47.044;15.080;2022-12-07T00:18:58;95982.84;;;-0.12;78.95
53440;BME280;39333;47.044;15.080;2022-12-07T00:21:28;95973.59;;;-0.14;78.99
53440;BME280;39333;47.044;15.080;2022-12-07T00:23:56;95981.88;;;-0.11;78.75
53440;BME280;39333;47.044;15.080;2022-12-07T00:26:25;95980.44;;;-0.13;78.39
53440;BME280;39333;47.044;15.080;2022-12-07T00:28:58;95973.00;;;-0.16;78.66
53440;BME280;39333;47.044;15.080;2022-12-07T00:31:30;95977.19;;;-0.15;78.93
53440;BME280;39333;47.044;15.080;2022-12-07T00:33:57;95978.81;;;-0.29;78.48
53440;BME280;39333;47.044;15.080;2022-12-07T00:36:25;95974.53;;;-0.22;79.05
53440;BME280;39333;47.044;15.080;2022-12-07T00:38:57;95977.59;;;-0.18;79.44
53440;BME280;39333;47.044;15.080;2022-12-07T00:41:26;95977.47;;;-0.25;78.87
53440;BME280;39333;47.044;15.080;2022-12-07T00:43:53;95986.22;;;-0.32;78.54
53440;BME280;39333;47.044;15.080;2022-12-07T00:46:21;95982.16;;;-0.35;78.88
53440;BME280;39333;47.044;15.080;2022-12-07T00:48:49;95974.88;;;-0.40;78.51
53440;BME280;39333;47.044;15.080;2022-12-07T00:51:18;95974.53;;;-0.37;78.61
53440;BME280;39333;47.044;15.080;2022-12-07T00:53:46;95975.16;;;-0.34;78.98
53440;BME280;39333;47.044;15.080;2022-12-07T00:56:16;95973.63;;;-0.44;77.91
53440;BME280;39333;47.044;15.080;2022-12-07T00:58:43;95978.47;;;-0.41;78.74
53440;BME280;39333;47.044;15.080;2022-12-07T01:01:10;95964.38;;;-0.46;78.21
53440;BME280;39333;47.044;15.080;2022-12-07T01:03:40;95975.59;;;-0.46;78.56
53440;BME280;39333;47.044;15.080;2022-12-07T01:06:07;95975.16;;;-0.49;78.86
53440;BME280;39333;47.044;15.080;2022-12-07T01:08:34;95984.38;;;-0.47;78.73
53440;BME280;39333;47.044;15.080;2022-12-07T01:11:03;95977.13;;;-0.51;78.63
53440;BME280;39333;47.044;15.080;2022-12-07T01:13:32;95982.22;;;-0.58;78.42
53440;BME280;39333;47.044;15.080;2022-12-07T01:16:00;95981.94;;;-0.63;78.27
53440;BME280;39333;47.044;15.080;2022-12-07T01:18:31;95973.94;;;-0.76;78.61
53440;BME280;39333;47.044;15.080;2022-12-07T01:21:14;95970.31;;;-1.04;78.55
53440;BME280;39333;47.044;15.080;2022-12-07T01:23:41;95973.91;;;-1.06;79.32
53440;BME280;39333;47.044;15.080;2022-12-07T01:26:14;95977.81;;;-1.10;79.36
53440;BME280;39333;47.044;15.080;2022-12-07T01:28:42;95973.97;;;-1.14;78.98
53440;BME280;39333;47.044;15.080;2022-12-07T01:31:11;95974.00;;;-0.99;80.08
53440;BME280;39333;47.044;15.080;2022-12-07T01:33:38;95965.41;;;-0.99;79.33
53440;BME280;39333;47.044;15.080;2022-12-07T01:36:20;95973.94;;;-0.91;79.63
53440;BME280;39333;47.044;15.080;2022-12-07T01:38:48;95977.28;;;-0.82;79.49
53440;BME280;39333;47.044;15.080;2022-12-07T01:41:15;95981.03;;;-0.85;79.34
53440;BME280;39333;47.044;15.080;2022-12-07T01:46:44;95963.44;;;-0.97;79.57
53440;BME280;39333;47.044;15.080;2022-12-07T01:51:46;95964.75;;;-1.01;79.09
53440;BME280;39333;47.044;15.080;2022-12-07T01:54:14;95963.44;;;-0.97;79.62
53440;BME280;39333;47.044;15.080;2022-12-07T01:56:49;95954.91;;;-0.91;80.20
53440;BME280;39333;47.044;15.080;2022-12-07T01:59:18;95962.81;;;-0.85;79.75
53440;BME280;39333;47.044;15.080;2022-12-07T02:01:48;95957.63;;;-0.85;79.19
53440;BME280;39333;47.044;15.080;2022-12-07T02:04:15;95960.69;;;-0.81;79.27
53440;BME280;39333;47.044;15.080;2022-12-07T02:06:43;95956.81;;;-0.85;79.01
53440;BME280;39333;47.044;15.080;2022-12-07T02:09:11;95953.28;;;-0.92;78.66
53440;BME280;39333;47.044;15.080;2022-12-07T02:11:39;95947.09;;;-0.91;79.34
53440;BME280;39333;47.044;15.080;2022-12-07T02:14:06;95951.78;;;-0.87;79.33
53440;BME280;39333;47.044;15.080;2022-12-07T02:20:00;95941.59;;;-0.96;79.05
53440;BME280;39333;47.044;15.080;2022-12-07T02:27:51;95933.56;;;-0.87;78.79
53440;BME280;39333;47.044;15.080;2022-12-07T02:30:21;95928.41;;;-0.95;78.34
53440;BME280;39333;47.044;15.080;2022-12-07T02:32:59;95927.16;;;-1.14;78.33
53440;BME280;39333;47.044;15.080;2022-12-07T02:38:07;95931.00;;;-1.10;79.47
53440;BME280;39333;47.044;15.080;2022-12-07T02:40:43;95936.66;;;-1.06;79.36
53440;BME280;39333;47.044;15.080;2022-12-07T02:43:16;95934.88;;;-1.28;78.04
53440;BME280;39333;47.044;15.080;2022-12-07T02:45:45;95931.84;;;-1.32;78.43
53440;BME280;39333;47.044;15.080;2022-12-07T02:48:16;95940.91;;;-1.28;79.35
53440;BME280;39333;47.044;15.080;2022-12-07T02:50:53;95931.78;;;-1.24;78.84
53440;BME280;39333;47.044;15.080;2022-12-07T02:53:38;95935.44;;;-1.33;78.60
53440;BME280;39333;47.044;15.080;2022-12-07T03:06:43;95937.31;;;-1.64;80.21
53440;BME280;39333;47.044;15.080;2022-12-07T03:10:00;95933.94;;;-1.50;80.20
53440;BME280;39333;47.044;15.080;2022-12-07T03:13:09;95928.50;;;-1.41;79.91
53440;BME280;39333;47.044;15.080;2022-12-07T03:15:39;95935.78;;;-1.36;79.89
53440;BME280;39333;47.044;15.080;2022-12-07T03:18:10;95935.84;;;-1.44;79.20
53440;BME280;39333;47.044;15.080;2022-12-07T03:20:40;95935.03;;;-1.45;79.17
53440;BME280;39333;47.044;15.080;2022-12-07T03:23:11;95932.06;;;-1.42;79.06
53440;BME280;39333;47.044;15.080;2022-12-07T03:25:47;95933.53;;;-1.39;79.33
53440;BME280;39333;47.044;15.080;2022-12-07T03:28:18;95930.59;;;-1.36;79.41
53440;BME280;39333;47.044;15.080;2022-12-07T03:30:54;95930.06;;;-1.31;79.22
53440;BME280;39333;47.044;15.080;2022-12-07T03:33:38;95929.50;;;-1.27;78.97
53440;BME280;39333;47.044;15.080;2022-12-07T03:36:24;95931.13;;;-1.26;78.66
53440;BME280;39333;47.044;15.080;2022-12-07T03:39:00;95923.34;;;-1.26;78.68
53440;BME280;39333;47.044;15.080;2022-12-07T03:41:32;95928.72;;;-1.27;78.24
53440;BME280;39333;47.044;15.080;2022-12-07T03:44:04;95922.69;;;-1.28;78.76
53440;BME280;39333;47.044;15.080;2022-12-07T03:46:50;95924.88;;;-1.31;78.57
53440;BME280;39333;47.044;15.080;2022-12-07T03:49:45;95920.72;;;-1.26;78.66
53440;BME280;39333;47.044;15.080;2022-12-07T03:52:24;95918.22;;;-1.34;78.24
53440;BME280;39333;47.044;15.080;2022-12-07T03:55:16;95918.84;;;-1.32;78.30
53440;BME280;39333;47.044;15.080;2022-12-07T03:57:45;95915.88;;;-1.29;78.23
53440;BME280;39333;47.044;15.080;2022-12-07T04:00:14;95922.47;;;-1.41;77.85
53440;BME280;39333;47.044;15.080;2022-12-07T04:02:41;95909.66;;;-1.43;77.95
53440;BME280;39333;47.044;15.080;2022-12-07T04:05:10;95911.53;;;-1.51;77.79
53440;BME280;39333;47.044;15.080;2022-12-07T04:07:37;95906.63;;;-1.46;78.15
53440;BME280;39333;47.044;15.080;2022-12-07T04:10:04;95904.13;;;-1.39;78.13
53440;BME280;39333;47.044;15.080;2022-12-07T04:12:31;95905.69;;;-1.53;77.37
53440;BME280;39333;47.044;15.080;2022-12-07T04:14:58;95908.41;;;-1.69;78.07
53440;BME280;39333;47.044;15.080;2022-12-07T04:17:25;95914.66;;;-1.79;77.70
53440;BME280;39333;47.044;15.080;2022-12-07T04:19:51;95907.94;;;-1.73;78.60
53440;BME280;39333;47.044;15.080;2022-12-07T04:22:18;95910.72;;;-1.74;78.72
53440;BME280;39333;47.044;15.080;2022-12-07T04:24:45;95919.94;;;-1.72;78.47
53440;BME280;39333;47.044;15.080;2022-12-07T04:27:12;95919.75;;;-1.62;79.06
53440;BME280;39333;47.044;15.080;2022-12-07T04:29:38;95906.09;;;-1.64;78.54
53440;BME280;39333;47.044;15.080;2022-12-07T04:32:05;95909.72;;;-1.73;77.93
53440;BME280;39333;47.044;15.080;2022-12-07T04:34:32;95910.53;;;-1.73;77.99
53440;BME280;39333;47.044;15.080;2022-12-07T04:36:59;95910.19;;;-1.70;78.31
53440;BME280;39333;47.044;15.080;2022-12-07T04:39:30;95913.75;;;-1.63;78.18
53440;BME280;39333;47.044;15.080;2022-12-07T04:41:58;95905.91;;;-1.86;78.01
53440;BME280;39333;47.044;15.080;2022-12-07T04:44:26;95912.91;;;-1.86;78.34
53440;BME280;39333;47.044;15.080;2022-12-07T04:46:53;95899.63;;;-1.91;78.51
53440;BME280;39333;47.044;15.080;2022-12-07T04:49:21;95914.19;;;-1.82;78.95
53440;BME280;39333;47.044;15.080;2022-12-07T04:51:48;95909.09;;;-1.76;78.99
53440;BME280;39333;47.044;15.080;2022-12-07T04:54:15;95899.50;;;-1.75;78.46
53440;BME280;39333;47.044;15.080;2022-12-07T04:56:43;95897.72;;;-1.74;78.29
53440;BME280;39333;47.044;15.080;2022-12-07T04:59:11;95900.91;;;-1.87;77.48
53440;BME280;39333;47.044;15.080;2022-12-07T05:01:38;95907.38;;;-1.83;78.37
53440;BME280;39333;47.044;15.080;2022-12-07T05:04:06;95901.06;;;-1.89;77.80
53440;BME280;39333;47.044;15.080;2022-12-07T05:06:33;95905.28;;;-1.88;78.29
53440;BME280;39333;47.044;15.080;2022-12-07T05:09:00;95899.28;;;-1.88;78.37
53440;BME280;39333;47.044;15.080;2022-12-07T05:11:27;95895.06;;;-1.89;78.13
53440;BME280;39333;47.044;15.080;2022-12-07T05:14:10;95896.44;;;-2.01;78.26
53440;BME280;39333;47.044;15.080;2022-12-07T05:16:37;95902.13;;;-2.06;78.38
53440;BME280;39333;47.044;15.080;2022-12-07T05:19:05;95901.13;;;-1.97;79.28
53440;BME280;39333;47.044;15.080;2022-12-07T05:21:32;95899.94;;;-1.94;78.82
53440;BME280;39333;47.044;15.080;2022-12-07T05:23:59;95896.75;;;-1.96;78.44
53440;BME280;39333;47.044;15.080;2022-12-07T05:26:25;95898.47;;;-1.89;78.46
53440;BME280;39333;47.044;15.080;2022-12-07T05:28:55;95907.06;;;-1.88;78.20
53440;BME280;39333;47.044;15.080;2022-12-07T05:31:23;95909.03;;;-1.90;77.98
53440;BME280;39333;47.044;15.080;2022-12-07T05:33:50;95912.84;;;-2.01;78.06
53440;BME280;39333;47.044;15.080;2022-12-07T05:36:18;95912.16;;;-1.95;78.27
53440;BME280;39333;47.044;15.080;2022-12-07T05:38:45;95911.63;;;-1.90;78.45
53440;BME280;39333;47.044;15.080;2022-12-07T05:41:14;95903.03;;;-1.91;78.20
53440;BME280;39333;47.044;15.080;2022-12-07T05:44:00;95910.81;;;-1.91;77.76
53440;BME280;39333;47.044;15.080;2022-12-07T05:46:27;95906.19;;;-2.03;77.61
53440;BME280;39333;47.044;15.080;2022-12-07T05:48:53;95910.28;;;-2.09;77.48
53440;BME280;39333;47.044;15.080;2022-12-07T05:51:20;95906.13;;;-2.18;78.13
53440;BME280;39333;47.044;15.080;2022-12-07T05:53:47;95903.47;;;-2.10;78.81
53440;BME280;39333;47.044;15.080;2022-12-07T05:56:14;95912.84;;;-2.01;78.59
53440;BME280;39333;47.044;15.080;2022-12-07T05:58:40;95911.97;;;-1.93;78.33
53440;BME280;39333;47.044;15.080;2022-12-07T06:01:26;95913.94;;;-1.95;77.91
53440;BME280;39333;47.044;15.080;2022-12-07T06:03:53;95909.44;;;-2.01;78.14
53440;BME280;39333;47.044;15.080;2022-12-07T06:06:20;95908.06;;;-2.20;77.01
53440;BME280;39333;47.044;15.080;2022-12-07T06:08:47;95909.34;;;-2.47;78.06
53440;BME280;39333;47.044;15.080;2022-12-07T06:11:13;95916.41;;;-2.33;78.56
53440;BME280;39333;47.044;15.080;2022-12-07T06:13:59;95914.78;;;-2.34;78.20
53440;BME280;39333;47.044;15.080;2022-12-07T06:16:25;95920.28;;;-2.29;78.84
53440;BME280;39333;47.044;15.080;2022-12-07T06:18:55;95907.41;;;-2.22;78.91
53440;BME280;39333;47.044;15.080;2022-12-07T06:21:22;95925.91;;;-2.17;78.51
53440;BME280;39333;47.044;15.080;2022-12-07T06:23:48;95926.25;;;-2.20;78.02
53440;BME280;39333;47.044;15.080;2022-12-07T06:26:15;95922.84;;;-2.21;78.47
53440;BME280;39333;47.044;15.080;2022-12-07T06:28:42;95930.50;;;-2.27;77.77
53440;BME280;39333;47.044;15.080;2022-12-07T06:31:09;95927.72;;;-2.26;78.29
53440;BME280;39333;47.044;15.080;2022-12-07T06:33:40;95933.22;;;-2.21;78.23
53440;BME280;39333;47.044;15.080;2022-12-07T06:36:07;95932.38;;;-2.13;78.57
53440;BME280;39333;47.044;15.080;2022-12-07T06:38:34;95931.75;;;-2.15;77.83
53440;BME280;39333;47.044;15.080;2022-12-07T06:41:01;95933.19;;;-2.13;77.75
53440;BME280;39333;47.044;15.080;2022-12-07T06:43:28;95943.44;;;-2.11;77.77
53440;BME280;39333;47.044;15.080;2022-12-07T06:45:55;95941.59;;;-2.11;77.74
53440;BME280;39333;47.044;15.080;2022-12-07T06:48:22;95932.72;;;-2.16;77.67
53440;BME280;39333;47.044;15.080;2022-12-07T06:50:49;95948.66;;;-2.19;77.79
53440;BME280;39333;47.044;15.080;2022-12-07T06:53:22;95939.06;;;-2.19;77.87
53440;BME280;39333;47.044;15.080;2022-12-07T06:55:50;95944.19;;;-2.11;78.08
53440;BME280;39333;47.044;15.080;2022-12-07T06:58:17;95943.28;;;-2.18;77.44
53440;BME280;39333;47.044;15.080;2022-12-07T07:00:44;95951.25;;;-2.19;78.00
53440;BME280;39333;47.044;15.080;2022-12-07T07:03:12;95940.81;;;-2.11;78.35
53440;BME280;39333;47.044;15.080;2022-12-07T07:05:38;95948.09;;;-2.06;77.93
53440;BME280;39333;47.044;15.080;2022-12-07T07:08:06;95944.03;;;-2.09;77.79
53440;BME280;39333;47.044;15.080;2022-12-07T07:10:49;95942.47;;;-2.18;78.02
53440;BME280;39333;47.044;15.080;2022-12-07T07:13:16;95948.31;;;-2.24;78.11
53440;BME280;39333;47.044;15.080;2022-12-07T07:15:43;95953.50;;;-2.16;78.95
53440;BME280;39333;47.044;15.080;2022-12-07T07:18:10;95952.63;;;-2.00;79.28
53440;BME280;39333;47.044;15.080;2022-12-07T07:20:38;95948.78;;;-1.82;79.08
53440;BME280;39333;47.044;15.080;2022-12-07T07:23:05;95954.84;;;-1.66;78.75
53440;BME280;39333;47.044;15.080;2022-12-07T07:25:32;95946.31;;;-1.52;78.41
53440;BME280;39333;47.044;15.080;2022-12-07T07:27:59;95948.97;;;-1.37;78.30
53440;BME280;39333;47.044;15.080;2022-12-07T07:30:26;95954.19;;;-1.23;78.16
53440;BME280;39333;47.044;15.080;2022-12-07T07:33:00;95949.81;;;-1.22;77.93
53440;BME280;39333;47.044;15.080;2022-12-07T07:35:29;95957.34;;;-1.13;77.86
53440;BME280;39333;47.044;15.080;2022-12-07T07:37:56;95953.38;;;-1.00;77.95
53440;BME280;39333;47.044;15.080;2022-12-07T07:40:24;95951.66;;;-0.93;77.67
53440;BME280;39333;47.044;15.080;2022-12-07T07:42:52;95949.47;;;-0.82;77.76
53440;BME280;39333;47.044;15.080;2022-12-07T07:45:21;95954.84;;;-0.68;77.82
53440;BME280;39333;47.044;15.080;2022-12-07T07:47:48;95954.56;;;-0.59;77.95
53440;BME280;39333;47.044;15.080;2022-12-07T07:50:16;95959.16;;;-0.46;77.93
53440;BME280;39333;47.044;15.080;2022-12-07T07:52:43;95954.16;;;-0.33;77.95
53440;BME280;39333;47.044;15.080;2022-12-07T07:55:10;95956.63;;;-0.25;78.26
53440;BME280;39333;47.044;15.080;2022-12-07T07:57:38;95956.75;;;-0.18;78.42
53440;BME280;39333;47.044;15.080;2022-12-07T08:00:12;95954.66;;;-0.08;77.99
53440;BME280;39333;47.044;15.080;2022-12-07T08:02:40;95958.16;;;-0.01;78.12
53440;BME280;39333;47.044;15.080;2022-12-07T08:05:07;95960.81;;;0.06;78.29
53440;BME280;39333;47.044;15.080;2022-12-07T08:07:34;95954.34;;;0.16;79.40
53440;BME280;39333;47.044;15.080;2022-12-07T08:10:00;95953.84;;;0.27;79.13
53440;BME280;39333;47.044;15.080;2022-12-07T08:12:28;95957.31;;;0.34;78.80
53440;BME280;39333;47.044;15.080;2022-12-07T08:14:54;95961.28;;;0.45;78.81
53440;BME280;39333;47.044;15.080;2022-12-07T08:17:21;95969.84;;;0.60;78.72
53440;BME280;39333;47.044;15.080;2022-12-07T08:19:48;95976.72;;;0.68;77.93
53440;BME280;39333;47.044;15.080;2022-12-07T08:22:15;95978.06;;;0.79;77.27
53440;BME280;39333;47.044;15.080;2022-12-07T08:24:41;95974.00;;;0.97;77.73
53440;BME280;39333;47.044;15.080;2022-12-07T08:27:10;95976.34;;;1.14;78.08
53440;BME280;39333;47.044;15.080;2022-12-07T08:29:37;95981.50;;;1.35;77.88
53440;BME280;39333;47.044;15.080;2022-12-07T08:32:04;95985.84;;;1.49;77.28
53440;BME280;39333;47.044;15.080;2022-12-07T08:34:35;95979.28;;;1.60;76.50
53440;BME280;39333;47.044;15.080;2022-12-07T08:37:03;95988.56;;;1.62;76.74
53440;BME280;39333;47.044;15.080;2022-12-07T08:39:30;95991.25;;;1.75;76.68
53440;BME280;39333;47.044;15.080;2022-12-07T08:41:58;95999.97;;;1.89;76.57
53440;BME280;39333;47.044;15.080;2022-12-07T08:44:25;95986.94;;;2.02;76.05
53440;BME280;39333;47.044;15.080;2022-12-07T08:47:02;95988.59;;;2.10;76.52
53440;BME280;39333;47.044;15.080;2022-12-07T08:49:41;96000.50;;;2.19;76.09
53440;BME280;39333;47.044;15.080;2022-12-07T08:52:10;96004.78;;;2.33;76.00
53440;BME280;39333;47.044;15.080;2022-12-07T08:54:38;95999.41;;;2.41;75.97
53440;BME280;39333;47.044;15.080;2022-12-07T08:57:06;96003.81;;;2.47;75.60
53440;BME280;39333;47.044;15.080;2022-12-07T08:59:35;96010.50;;;2.57;76.01
53440;BME280;39333;47.044;15.080;2022-12-07T09:02:03;96009.50;;;2.64;75.40
53440;BME280;39333;47.044;15.080;2022-12-07T09:04:30;96009.56;;;2.84;75.09
53440;BME280;39333;47.044;15.080;2022-12-07T09:06:58;96000.50;;;2.87;75.27
53440;BME280;39333;47.044;15.080;2022-12-07T09:09:25;96003.09;;;2.73;75.89
53440;BME280;39333;47.044;15.080;2022-12-07T09:11:52;96005.91;;;2.65;75.16
53440;BME280;39333;47.044;15.080;2022-12-07T09:14:19;96001.25;;;2.61;75.51
53440;BME280;39333;47.044;15.080;2022-12-07T09:16:45;95998.47;;;2.69;75.86
53440;BME280;39333;47.044;15.080;2022-12-07T09:19:12;95999.50;;;2.81;76.16
53440;BME280;39333;47.044;15.080;2022-12-07T09:21:39;96001.53;;;2.99;76.11
53440;BME280;39333;47.044;15.080;2022-12-07T09:24:06;96005.78;;;3.13;74.92
53440;BME280;39333;47.044;15.080;2022-12-07T09:26:32;96007.59;;;3.19;75.06
53440;BME280;39333;47.044;15.080;2022-12-07T09:28:59;96006.41;;;3.22;73.70
53440;BME280;39333;47.044;15.080;2022-12-07T09:31:26;96005.59;;;3.34;73.52
53440;BME280;39333;47.044;15.080;2022-12-07T09:33:57;95995.91;;;3.48;71.93
53440;BME280;39333;47.044;15.080;2022-12-07T09:36:25;96006.38;;;3.61;71.11
53440;BME280;39333;47.044;15.080;2022-12-07T09:38:52;96008.41;;;3.72;71.84
53440;BME280;39333;47.044;15.080;2022-12-07T09:41:19;96008.78;;;3.82;71.29
53440;BME280;39333;47.044;15.080;2022-12-07T09:43:47;96007.09;;;4.08;71.53
53440;BME280;39333;47.044;15.080;2022-12-07T09:46:15;96003.38;;;4.35;70.66
53440;BME280;39333;47.044;15.080;2022-12-07T09:48:47;96004.28;;;4.61;68.05
53440;BME280;39333;47.044;15.080;2022-12-07T09:51:23;96002.16;;;4.76;66.95
53440;BME280;39333;47.044;15.080;2022-12-07T09:53:53;96004.28;;;4.92;67.98
53440;BME280;39333;47.044;15.080;2022-12-07T09:56:21;95990.16;;;4.93;67.39
53440;BME280;39333;47.044;15.080;2022-12-07T09:58:50;95997.22;;;4.92;68.23
53440;BME280;39333;47.044;15.080;2022-12-07T10:01:21;95986.00;;;4.79;69.09
53440;BME280;39333;47.044;15.080;2022-12-07T10:03:54;95989.03;;;4.76;69.22
53440;BME280;39333;47.044;15.080;2022-12-07T10:06:23;95990.91;;;4.69;70.53
53440;BME280;39333;47.044;15.080;2022-12-07T10:08:50;95996.75;;;4.71;70.75
53440;BME280;39333;47.044;15.080;2022-12-07T10:11:19;95977.28;;;4.85;70.75
53440;BME280;39333;47.044;15.080;2022-12-07T10:13:48;95972.94;;;4.97;69.77
53440;BME280;39333;47.044;15.080;2022-12-07T10:18:52;95972.91;;;5.28;68.63
53440;BME280;39333;47.044;15.080;2022-12-07T10:24:14;95970.28;;;5.53;66.87
53440;BME280;39333;47.044;15.080;2022-12-07T10:31:41;95976.75;;;6.01;68.00
53440;BME280;39333;47.044;15.080;2022-12-07T10:36:53;95968.59;;;6.20;65.23
53440;BME280;39333;47.044;15.080;2022-12-07T10:39:22;95960.41;;;6.28;63.93
53440;BME280;39333;47.044;15.080;2022-12-07T10:42:00;95956.88;;;6.35;64.14
53440;BME280;39333;47.044;15.080;2022-12-07T10:44:32;95955.22;;;6.40;63.21
53440;BME280;39333;47.044;15.080;2022-12-07T10:55:20;95949.91;;;6.58;63.57
53440;BME280;39333;47.044;15.080;2022-12-07T11:00:41;95949.28;;;6.75;62.43
53440;BME280;39333;47.044;15.080;2022-12-07T11:06:24;95948.72;;;7.49;63.06
53440;BME280;39333;47.044;15.080;2022-12-07T11:12:10;95947.22;;;8.12;56.20
53440;BME280;39333;47.044;15.080;2022-12-07T11:14:51;95942.38;;;8.20;55.47
53440;BME280;39333;47.044;15.080;2022-12-07T11:17:42;95943.13;;;7.92;57.54
53440;BME280;39333;47.044;15.080;2022-12-07T11:33:31;95930.75;;;6.81;64.93
53440;BME280;39333;47.044;15.080;2022-12-07T11:38:53;95924.22;;;6.84;66.93
53440;BME280;39333;47.044;15.080;2022-12-07T11:41:31;95919.31;;;6.99;64.06
53440;BME280;39333;47.044;15.080;2022-12-07T11:44:07;95914.19;;;7.04;63.98
53440;BME280;39333;47.044;15.080;2022-12-07T11:46:47;95916.75;;;7.46;64.01
53440;BME280;39333;47.044;15.080;2022-12-07T11:49:25;95916.88;;;7.62;63.49
53440;BME280;39333;47.044;15.080;2022-12-07T11:51:57;95914.91;;;7.58;59.32
53440;BME280;39333;47.044;15.080;2022-12-07T11:54:30;95908.09;;;7.85;58.49
53440;BME280;39333;47.044;15.080;2022-12-07T11:57:04;95903.03;;;8.07;59.23
53440;BME280;39333;47.044;15.080;2022-12-07T11:59:45;95908.13;;;8.37;57.94
53440;BME280;39333;47.044;15.080;2022-12-07T12:02:19;95902.19;;;8.58;58.21
53440;BME280;39333;47.044;15.080;2022-12-07T12:05:16;95898.19;;;8.56;55.69
53440;BME280;39333;47.044;15.080;2022-12-07T12:07:46;95899.44;;;8.98;56.09
53440;BME280;39333;47.044;15.080;2022-12-07T12:10:52;95895.91;;;8.76;55.45
53440;BME280;39333;47.044;15.080;2022-12-07T12:17:20;95896.47;;;8.50;55.07
53440;BME280;39333;47.044;15.080;2022-12-07T12:22:49;95885.97;;;9.00;59.80
53440;BME280;39333;47.044;15.080;2022-12-07T12:25:28;95881.56;;;9.39;58.87
53440;BME280;39333;47.044;15.080;2022-12-07T12:27:58;95883.88;;;8.68;54.76
53440;BME280;39333;47.044;15.080;2022-12-07T12:30:36;95890.91;;;8.23;59.34
53440;BME280;39333;47.044;15.080;2022-12-07T12:33:16;95889.66;;;8.25;59.56
53440;BME280;39333;47.044;15.080;2022-12-07T12:35:46;95882.25;;;7.99;58.59
53440;BME280;39333;47.044;15.080;2022-12-07T12:38:30;95887.25;;;7.49;60.31
53440;BME280;39333;47.044;15.080;2022-12-07T12:40:57;95891.97;;;7.35;60.77
53440;BME280;39333;47.044;15.080;2022-12-07T12:43:45;95890.94;;;7.24;61.86
53440;BME280;39333;47.044;15.080;2022-12-07T12:54:32;95888.03;;;6.91;67.32
53440;BME280;39333;47.044;15.080;2022-12-07T12:57:28;95878.50;;;6.78;69.35
53440;BME280;39333;47.044;15.080;2022-12-07T12:59:57;95882.13;;;6.36;67.61
53440;BME280;39333;47.044;15.080;2022-12-07T13:02:27;95877.50;;;6.19;68.87
53440;BME280;39333;47.044;15.080;2022-12-07T13:15:46;95882.69;;;6.67;72.89
53440;BME280;39333;47.044;15.080;2022-12-07T13:18:41;95877.44;;;6.67;73.37
53440;BME280;39333;47.044;15.080;2022-12-07T13:23:54;95885.41;;;6.49;73.27
53440;BME280;39333;47.044;15.080;2022-12-07T13:31:44;95885.25;;;6.32;74.45
53440;BME280;39333;47.044;15.080;2022-12-07T13:34:35;95893.34;;;6.31;74.61
53440;BME280;39333;47.044;15.080;2022-12-07T13:39:59;95873.97;;;6.25;76.56
53440;BME280;39333;47.044;15.080;2022-12-07T13:42:31;95881.00;;;6.31;75.60
53440;BME280;39333;47.044;15.080;2022-12-07T13:45:00;95881.22;;;6.30;75.56
53440;BME280;39333;47.044;15.080;2022-12-07T13:47:48;95879.78;;;6.16;75.12
53440;BME280;39333;47.044;15.080;2022-12-07T13:50:27;95889.38;;;6.10;75.87
53440;BME280;39333;47.044;15.080;2022-12-07T13:52:58;95894.47;;;6.05;76.04
53440;BME280;39333;47.044;15.080;2022-12-07T13:55:28;95890.31;;;6.16;75.08
53440;BME280;39333;47.044;15.080;2022-12-07T13:57:55;95889.59;;;6.39;74.16
53440;BME280;39333;47.044;15.080;2022-12-07T14:00:25;95887.91;;;6.44;73.31
53440;BME280;39333;47.044;15.080;2022-12-07T14:05:30;95883.56;;;6.20;73.92
53440;BME280;39333;47.044;15.080;2022-12-07T14:07:59;95896.84;;;5.95;73.78
53440;BME280;39333;47.044;15.080;2022-12-07T14:10:35;95892.22;;;5.90;75.16
53440;BME280;39333;47.044;15.080;2022-12-07T14:13:03;95898.50;;;5.89;75.79
53440;BME280;39333;47.044;15.080;2022-12-07T14:15:52;95900.41;;;5.82;75.46
53440;BME280;39333;47.044;15.080;2022-12-07T14:18:30;95900.25;;;5.77;75.52
53440;BME280;39333;47.044;15.080;2022-12-07T14:21:27;95903.03;;;5.64;75.64
53440;BME280;39333;47.044;15.080;2022-12-07T14:26:38;95900.22;;;5.59;76.05
53440;BME280;39333;47.044;15.080;2022-12-07T14:31:52;95910.88;;;5.46;75.92
53440;BME280;39333;47.044;15.080;2022-12-07T14:34:21;95913.66;;;5.33;76.13
53440;BME280;39333;47.044;15.080;2022-12-07T14:36:48;95910.69;;;5.22;76.05
53440;BME280;39333;47.044;15.080;2022-12-07T14:39:14;95913.78;;;5.19;76.28
53440;BME280;39333;47.044;15.080;2022-12-07T14:41:43;95907.13;;;5.17;76.77
53440;BME280;39333;47.044;15.080;2022-12-07T14:44:21;95918.25;;;5.12;76.71
53440;BME280;39333;47.044;15.080;2022-12-07T14:46:52;95905.56;;;5.09;77.02
53440;BME280;39333;47.044;15.080;2022-12-07T14:49:39;95913.88;;;4.75;75.76
53440;BME280;39333;47.044;15.080;2022-12-07T14:52:43;95910.66;;;4.73;77.00
53440;BME280;39333;47.044;15.080;2022-12-07T14:57:52;95912.75;;;4.64;77.76
53440;BME280;39333;47.044;15.080;2022-12-07T15:00:20;95921.16;;;4.73;77.58
53440;BME280;39333;47.044;15.080;2022-12-07T15:02:48;95931.13;;;4.64;77.53
53440;BME280;39333;47.044;15.080;2022-12-07T15:05:15;95929.31;;;4.65;77.81
53440;BME280;39333;47.044;15.080;2022-12-07T15:07:44;95933.38;;;4.61;77.20
53440;BME280;39333;47.044;15.080;2022-12-07T15:10:20;95943.50;;;4.57;77.85
53440;BME280;39333;47.044;15.080;2022-12-07T15:12:50;95943.75;;;4.49;77.26
53440;BME280;39333;47.044;15.080;2022-12-07T15:15:17;95941.22;;;4.29;76.80
53440;BME280;39333;47.044;15.080;2022-12-07T15:17:44;95939.19;;;4.31;78.25